Time;durP1;ratioP1;P1;durP2;ratioP2;P2;SDS_P1;SDS_P2;PMS_P1;PMS_P2;Temp;Humidity;BMP_temperature;BMP_pressure;BME280_temperature;BME280_humidity;BME280_pressure;Samples;Min_cycle;Max_cycle;Signal;HPM_P1;HPM_P2
2022/11/02 00:02:18;;;;;;;16.87;12.95;;;;;;;12.07;100.00;99689.34;1856860;77;21147;-65
2022/11/02 00:04:45;;;;;;;19.42;13.32;;;;;;;12.10;100.00;99695.75;1832386;77;20988;-65
2022/11/02 00:07:12;;;;;;;18.90;14.13;;;;;;;12.06;100.00;99690.28;1837701;77;20906;-65
2022/11/02 00:09:38;;;;;;;19.07;13.07;;;;;;;11.98;100.00;99692.45;1853842;77;20895;-65
2022/11/02 00:12:06;;;;;;;17.67;12.23;;;;;;;11.82;100.00;99680.17;1835729;77;21060;-65
2022/11/02 00:14:33;;;;;;;14.90;11.20;;;;;;;11.76;100.00;99690.97;1834697;77;21113;-65
2022/11/02 00:16:59;;;;;;;15.50;12.05;;;;;;;11.76;100.00;99685.73;1851558;77;21063;-65
2022/11/02 00:19:26;;;;;;;17.23;12.30;;;;;;;11.75;100.00;99687.95;1854480;77;21534;-65
2022/11/02 00:21:54;;;;;;;18.95;11.57;;;;;;;11.71;100.00;99686.44;1845961;77;21168;-65
2022/11/02 00:24:21;;;;;;;18.32;11.53;;;;;;;11.67;100.00;99686.20;1843030;75;20981;-65
2022/11/02 00:26:48;;;;;;;16.35;10.53;;;;;;;11.61;100.00;99693.06;1827724;77;22298;-65
2022/11/02 00:29:14;;;;;;;14.38;9.78;;;;;;;11.57;100.00;99695.47;1833972;77;20935;-65
2022/11/02 00:31:41;;;;;;;17.07;10.20;;;;;;;11.53;100.00;99688.69;1836214;77;21035;-65
2022/11/02 00:34:08;;;;;;;19.97;9.80;;;;;;;11.49;100.00;99695.86;1843557;76;20922;-65
2022/11/02 00:36:34;;;;;;;13.78;10.55;;;;;;;11.45;100.00;99694.30;1853665;75;21669;-65
2022/11/02 00:39:01;;;;;;;17.83;10.10;;;;;;;11.39;100.00;99695.47;1805943;77;23701;-64
2022/11/02 00:41:28;;;;;;;18.67;10.47;;;;;;;11.30;100.00;99702.94;1837151;77;20933;-64
2022/11/02 00:43:54;;;;;;;21.57;10.63;;;;;;;11.24;100.00;99702.79;1835376;77;21037;-64
2022/11/02 00:46:21;;;;;;;15.75;9.65;;;;;;;11.12;100.00;99699.03;1839257;75;21127;-64
2022/11/02 00:48:48;;;;;;;20.70;10.77;;;;;;;11.19;100.00;99708.70;1852633;77;20984;-64
2022/11/02 00:51:15;;;;;;;15.20;9.93;;;;;;;11.28;100.00;99712.62;1836366;75;21424;-65
2022/11/02 00:53:42;;;;;;;17.37;10.75;;;;;;;11.28;100.00;99709.54;1839854;77;20973;-65
2022/11/02 00:56:08;;;;;;;14.43;10.77;;;;;;;11.20;100.00;99713.87;1824914;77;20973;-65
2022/11/02 00:58:35;;;;;;;16.33;11.13;;;;;;;11.17;100.00;99713.15;1853753;77;20954;-65
2022/11/02 01:01:06;;;;;;;16.97;12.37;;;;;;;11.04;100.00;99717.31;1853239;77;20958;-65
2022/11/02 01:03:33;;;;;;;27.75;11.57;;;;;;;11.04;100.00;99717.31;1850484;75;22283;-65
2022/11/02 01:06:10;;;;;;;18.15;9.95;;;;;;;10.96;100.00;99718.52;1855780;77;21034;-65
2022/11/02 01:08:36;;;;;;;15.78;10.68;;;;;;;11.00;100.00;99725.74;1841361;75;20947;-65
2022/11/02 01:11:13;;;;;;;16.00;10.53;;;;;;;10.97;100.00;99724.59;1859762;77;21659;-65
2022/11/02 01:13:40;;;;;;;19.87;11.85;;;;;;;10.90;100.00;99720.13;1834065;75;21009;-65
2022/11/02 01:16:08;;;;;;;16.30;10.90;;;;;;;10.80;100.00;99725.41;1835033;77;21782;-64
2022/11/02 01:18:35;;;;;;;17.52;10.32;;;;;;;10.77;100.00;99725.55;1847640;77;20980;-65
2022/11/02 01:21:02;;;;;;;15.20;9.17;;;;;;;10.71;100.00;99728.47;1829800;77;21657;-65
2022/11/02 01:23:32;;;;;;;12.58;9.50;;;;;;;10.69;100.00;99727.69;1843744;77;20989;-65
2022/11/02 01:26:04;;;;;;;17.30;10.15;;;;;;;10.65;100.00;99736.59;1850286;77;21001;-65
2022/11/02 01:28:31;;;;;;;16.50;10.65;;;;;;;10.56;100.00;99731.79;1844853;76;22007;-65
2022/11/02 01:31:00;;;;;;;16.30;10.43;;;;;;;10.36;100.00;99728.34;1838031;77;21051;-65
2022/11/02 01:33:27;;;;;;;14.25;10.18;;;;;;;10.36;100.00;99728.80;1842237;77;21013;-64
2022/11/02 01:35:55;;;;;;;18.35;10.48;;;;;;;10.28;100.00;99730.02;1838740;77;21030;-65
2022/11/02 01:38:23;;;;;;;13.90;10.20;;;;;;;10.24;100.00;99723.66;1857922;76;21028;-63
2022/11/02 01:40:50;;;;;;;;;;;;;;;10.24;100.00;99728.88;1855130;77;21149;-63
2022/11/02 01:43:33;;;;;;;16.93;10.50;;;;;;;10.18;100.00;99718.73;1850790;77;20853;-64
2022/11/02 01:46:11;;;;;;;18.00;10.80;;;;;;;10.21;100.00;99722.04;1867456;75;20977;-64
2022/11/02 01:48:57;;;;;;;19.23;11.05;;;;;;;10.21;100.00;99719.89;1847508;77;21059;-64
2022/11/02 01:51:35;;;;;;;17.17;10.70;;;;;;;10.20;100.00;99715.14;1831074;77;20953;-64
2022/11/02 01:54:19;;;;;;;18.23;9.90;;;;;;;10.17;100.00;99709.22;1841809;77;21981;-63
2022/11/02 01:56:50;;;;;;;16.12;10.65;;;;;;;10.16;100.00;99704.91;1826537;77;20913;-64
2022/11/02 01:59:22;;;;;;;18.65;10.35;;;;;;;10.14;100.00;99699.77;1824638;77;20918;-64
2022/11/02 02:01:48;;;;;;;15.70;9.78;;;;;;;10.06;100.00;99702.72;1830154;77;21303;-64
2022/11/02 02:04:16;;;;;;;20.60;10.43;;;;;;;10.03;100.00;99702.86;1835756;77;21470;-64
2022/11/02 02:06:43;;;;;;;20.72;11.80;;;;;;;9.99;100.00;99708.28;1810249;77;21436;-64
2022/11/02 02:09:11;;;;;;;19.62;10.05;;;;;;;9.97;100.00;99712.70;1821506;77;20974;-64
2022/11/02 02:11:39;;;;;;;16.12;10.45;;;;;;;9.92;100.00;99707.72;1847955;75;20992;-64
2022/11/02 02:14:13;;;;;;;15.15;10.50;;;;;;;9.87;100.00;99710.98;1846237;77;20931;-64
2022/11/02 02:16:46;;;;;;;23.07;10.48;;;;;;;9.82;100.00;99709.03;1762284;80;21226;-64
2022/11/02 02:19:34;;;;;;;21.73;10.28;;;;;;;9.78;100.00;99707.48;1748972;80;21930;-65
2022/11/02 02:22:52;;;;;;;18.20;10.80;;;;;;;9.70;100.00;99710.88;1760360;80;20989;-65
2022/11/02 02:25:38;;;;;;;16.82;10.68;;;;;;;9.67;100.00;99709.72;1723430;82;21200;-64
2022/11/02 02:28:50;;;;;;;13.07;9.27;;;;;;;9.61;100.00;99709.06;1707194;82;21088;-65
2022/11/02 02:31:37;;;;;;;16.32;10.28;;;;;;;9.53;100.00;99708.55;1717150;81;21236;-65
2022/11/02 02:34:20;;;;;;;20.00;10.13;;;;;;;9.50;100.00;99703.47;1691250;84;21820;-65
2022/11/02 02:37:15;;;;;;;19.30;10.78;;;;;;;9.41;100.00;99707.78;1668701;84;20982;-65
2022/11/02 02:40:06;;;;;;;13.05;9.43;;;;;;;9.37;100.00;99707.51;1709145;82;20993;-65
2022/11/02 02:42:47;;;;;;;12.85;8.70;;;;;;;9.26;100.00;99708.42;1703877;83;21053;-64
2022/11/02 02:45:34;;;;;;;14.78;9.70;;;;;;;9.24;100.00;99703.72;1698769;82;21064;-64
2022/11/02 02:48:11;;;;;;;16.55;9.30;;;;;;;9.17;100.00;99705.28;1698860;83;21523;-64
2022/11/02 02:50:54;;;;;;;15.70;9.70;;;;;;;9.11;100.00;99705.55;1704241;83;21097;-65
2022/11/02 02:53:26;;;;;;;15.95;9.73;;;;;;;9.02;100.00;99704.63;1694583;83;21048;-65
2022/11/02 02:55:53;;;;;;;14.05;10.00;;;;;;;9.02;100.00;99708.97;1691824;84;21108;-65
2022/11/02 02:58:27;;;;;;;17.25;10.03;;;;;;;8.91;100.00;99709.44;1694741;83;21568;-65
2022/11/02 03:00:56;;;;;;;14.65;9.70;;;;;;;8.91;100.00;99704.22;1724935;80;21138;-65
2022/11/02 03:03:25;;;;;;;13.90;9.40;;;;;;;8.88;100.00;99710.86;1754480;80;21108;-65
2022/11/02 03:06:18;;;;;;;24.12;9.70;;;;;;;8.84;100.00;99710.58;1774863;80;21001;-65
2022/11/02 03:09:02;;;;;;;21.10;9.98;;;;;;;8.78;100.00;99718.64;1740257;80;21503;-64
2022/11/02 03:11:30;;;;;;;47.45;11.40;;;;;;;8.79;100.00;99717.72;1786033;80;21097;-64
2022/11/02 03:14:23;;;;;;;63.58;11.63;;;;;;;8.86;100.00;99724.39;1782635;80;21086;-64
2022/11/02 03:17:01;;;;;;;97.97;10.95;;;;;;;8.90;100.00;99728.55;1753121;80;21025;-64
2022/11/02 03:19:44;;;;;;;140.12;11.75;;;;;;;8.94;100.00;99738.79;1752567;80;21613;-64
2022/11/02 03:22:32;;;;;;;124.62;11.80;;;;;;;9.00;100.00;99739.45;1752847;81;21688;-64
2022/11/02 03:25:22;;;;;;;78.42;12.82;;;;;;;9.05;100.00;99741.42;1754862;80;21202;-65
2022/11/02 03:28:05;;;;;;;54.35;11.55;;;;;;;9.12;100.00;99738.95;1751618;81;21263;-64
2022/11/02 03:30:42;;;;;;;60.73;10.65;;;;;;;9.16;100.00;99749.19;1765043;80;20951;-65
2022/11/02 03:33:19;;;;;;;70.62;12.00;;;;;;;9.21;100.00;99746.83;1753824;81;21105;-64
2022/11/02 03:35:57;;;;;;;49.93;11.57;;;;;;;9.27;100.00;99748.75;1760753;79;21067;-65
2022/11/02 03:38:31;;;;;;;40.20;11.00;;;;;;;9.32;100.00;99748.54;1760952;80;21081;-65
2022/11/02 03:41:00;;;;;;;17.75;11.48;;;;;;;9.28;100.00;99754.80;1759782;81;21040;-64
2022/11/02 03:43:28;;;;;;;20.10;12.28;;;;;;;9.41;100.00;99753.39;1742677;81;21087;-64
2022/11/02 03:45:57;;;;;;;16.30;11.68;;;;;;;9.46;100.00;99750.57;1776106;79;21085;-64
2022/11/02 03:48:35;;;;;;;16.00;11.95;;;;;;;9.49;100.00;99756.49;1743937;80;21595;-65
2022/11/02 03:51:06;;;;;;;17.35;12.58;;;;;;;9.53;100.00;99763.28;1770044;80;20973;-64
2022/11/02 03:53:47;;;;;;;15.48;12.55;;;;;;;9.57;100.00;99753.11;1809068;78;21098;-65
2022/11/02 03:56:22;;;;;;;17.23;12.20;;;;;;;9.59;100.00;99755.20;1821468;78;20981;-65
2022/11/02 03:58:49;;;;;;;15.40;12.50;;;;;;;9.59;100.00;99749.98;1810029;78;21530;-62
2022/11/02 04:01:17;;;;;;;14.53;12.53;;;;;;;9.55;100.00;99745.83;1775094;78;21004;-63
2022/11/02 04:03:46;;;;;;;18.45;13.25;;;;;;;9.52;100.00;99753.78;1809621;78;21534;-62
2022/11/02 04:06:13;;;;;;;26.23;13.45;;;;;;;9.49;100.00;99751.28;1818368;78;21105;-63
2022/11/02 04:08:46;;;;;;;53.05;14.05;;;;;;;9.49;100.00;99755.19;1818460;78;20977;-62
2022/11/02 04:16:45;;;;;;;96.95;13.20;;;;;;;9.63;100.00;99760.69;1811077;78;21199;-65
2022/11/02 04:19:26;;;;;;;198.47;13.85;;;;;;;9.68;100.00;99764.84;1809778;78;21537;-64
2022/11/02 04:27:26;;;;;;;122.07;12.28;;;;;;;9.79;100.00;99758.71;1818533;78;21507;-64
2022/11/02 04:29:52;;;;;;;137.00;12.27;;;;;;;9.81;100.00;99756.89;1805189;78;21171;-64
2022/11/02 04:35:07;;;;;;;99.37;11.95;;;;;;;9.83;100.00;99752.44;1807977;78;21510;-65
2022/11/02 04:40:27;;;;;;;157.05;12.75;;;;;;;9.87;100.00;99754.02;1807274;77;21064;-65
2022/11/02 04:42:54;;;;;;;151.78;12.05;;;;;;;9.91;100.00;99749.50;1793540;78;20898;-65
2022/11/02 04:45:20;;;;;;;118.93;12.25;;;;;;;9.93;100.00;99751.13;1794349;79;21467;-65
2022/11/02 04:47:47;;;;;;;121.40;12.23;;;;;;;9.95;100.00;99749.77;1783076;78;21005;-65
2022/11/02 04:50:14;;;;;;;72.23;11.40;;;;;;;9.95;100.00;99744.09;1789479;78;20997;-65
2022/11/02 04:52:41;;;;;;;95.67;13.05;;;;;;;9.94;100.00;99748.93;1778846;80;28600;-65
2022/11/02 04:55:08;;;;;;;188.30;13.20;;;;;;;9.96;100.00;99753.59;1811492;78;20977;-65
2022/11/02 04:57:35;;;;;;;126.15;11.85;;;;;;;9.97;100.00;99743.58;1782624;80;26721;-65
2022/11/02 05:00:06;;;;;;;121.07;10.75;;;;;;;9.97;100.00;99750.09;1787613;80;21034;-64
2022/11/02 05:02:32;;;;;;;151.68;11.78;;;;;;;9.99;100.00;99750.85;1790107;78;20931;-65
2022/11/02 05:04:59;;;;;;;151.55;11.63;;;;;;;9.99;100.00;99751.31;1781354;79;20958;-65
2022/11/02 05:07:26;;;;;;;88.92;11.25;;;;;;;9.97;100.00;99751.83;1784199;78;21487;-65
2022/11/02 05:09:53;;;;;;;87.75;11.63;;;;;;;9.96;100.00;99746.23;1778631;79;21106;-65
2022/11/02 05:12:19;;;;;;;85.60;12.13;;;;;;;9.89;100.00;99752.19;1788331;78;20985;-64
2022/11/02 05:14:46;;;;;;;99.35;11.65;;;;;;;9.85;100.00;99745.40;1782053;79;20926;-65
2022/11/02 05:17:13;;;;;;;86.37;11.03;;;;;;;9.80;100.00;99752.57;1787586;79;21065;-65
2022/11/02 05:19:40;;;;;;;143.02;11.43;;;;;;;9.77;100.00;99747.50;1779105;78;21605;-64
2022/11/02 05:22:07;;;;;;;190.40;11.20;;;;;;;9.68;100.00;99755.72;1811857;78;21992;-64
2022/11/02 05:24:33;;;;;;;146.57;11.40;;;;;;;9.60;100.00;99756.05;1819586;78;20977;-64
2022/11/02 05:27:01;;;;;;;112.60;10.23;;;;;;;9.50;100.00;99762.12;1802212;78;21099;-64
2022/11/02 05:29:28;;;;;;;122.50;9.93;;;;;;;9.40;100.00;99759.49;1798199;78;21543;-65
2022/11/02 05:31:56;;;;;;;114.87;9.10;;;;;;;9.34;100.00;99770.18;1792775;79;20958;-65
2022/11/02 05:34:23;;;;;;;68.83;8.30;;;;;;;9.26;100.00;99767.88;1787679;80;21970;-64
2022/11/02 05:36:49;;;;;;;173.20;9.83;;;;;;;9.17;100.00;99766.50;1814946;78;20941;-64
2022/11/02 05:39:16;;;;;;;74.65;8.70;;;;;;;9.09;100.00;99762.05;1823971;78;21028;-64
2022/11/02 05:41:43;;;;;;;67.27;9.85;;;;;;;9.04;100.00;99767.90;1791266;80;20993;-64
2022/11/02 05:44:09;;;;;;;79.20;10.80;;;;;;;9.02;100.00;99769.74;1782204;80;21080;-65
2022/11/02 05:46:36;;;;;;;118.45;10.63;;;;;;;8.96;100.00;99763.02;1804390;78;21475;-65
2022/11/02 05:49:04;;;;;;;178.87;11.20;;;;;;;8.94;100.00;99767.89;1798486;78;21052;-65
2022/11/02 05:51:50;;;;;;;74.80;9.15;;;;;;;8.90;100.00;99771.52;1821192;77;21515;-65
2022/11/02 05:54:19;;;;;;;64.32;9.73;;;;;;;8.90;100.00;99772.81;1665860;84;21077;-64
2022/11/02 05:56:46;;;;;;;41.15;9.80;;;;;;;8.88;100.00;99768.14;1685671;83;21534;-64
2022/11/02 05:59:13;;;;;;;62.10;11.97;;;;;;;8.86;100.00;99772.55;1671127;85;21652;-63
2022/11/02 06:01:40;;;;;;;28.35;9.70;;;;;;;8.87;100.00;99767.73;1692939;83;21863;-64
2022/11/02 06:04:06;;;;;;;26.50;9.77;;;;;;;8.82;100.00;99764.45;1697209;83;20924;-64
2022/11/02 06:06:33;;;;;;;21.53;9.87;;;;;;;8.80;100.00;99766.30;1696101;83;21584;-64
2022/11/02 06:09:00;;;;;;;124.77;10.03;;;;;;;8.80;100.00;99771.50;1702592;83;21092;-64
2022/11/02 06:11:26;;;;;;;155.60;10.82;;;;;;;8.79;100.00;99764.58;1700505;84;22060;-64
2022/11/02 06:13:53;;;;;;;94.27;9.90;;;;;;;8.80;100.00;99766.30;1712362;82;21092;-64
2022/11/02 06:16:20;;;;;;;47.90;10.38;;;;;;;8.78;100.00;99765.50;1712735;83;21570;-64
2022/11/02 06:18:46;;;;;;;56.85;9.13;;;;;;;8.80;100.00;99770.20;1689694;83;21017;-64
2022/11/02 06:21:14;;;;;;;55.40;10.27;;;;;;;8.83;100.00;99773.98;1686541;82;20954;-64
2022/11/02 06:23:41;;;;;;;;;;;;;;;8.88;100.00;99775.95;1717424;83;21092;-65
2022/11/02 06:26:11;;;;;;;51.92;9.90;;;;;;;8.93;100.00;99776.17;1692168;84;20215;-64
2022/11/02 06:28:39;;;;;;;27.32;8.95;;;;;;;8.98;100.00;99780.33;1685785;83;21029;-65
2022/11/02 06:31:05;;;;;;;60.83;9.45;;;;;;;9.02;100.00;99777.55;1681249;83;21033;-66
2022/11/02 06:33:32;;;;;;;80.63;8.90;;;;;;;9.06;100.00;99771.77;1686192;84;21135;-64
2022/11/02 06:35:59;;;;;;;64.07;8.33;;;;;;;9.10;100.00;99772.89;1691107;83;21544;-64
2022/11/02 06:38:26;;;;;;;47.33;8.15;;;;;;;9.14;100.00;99774.91;1681131;83;21212;-65
2022/11/02 06:41:02;;;;;;;64.73;8.50;;;;;;;9.21;100.00;99779.40;1700091;83;20969;-65
2022/11/02 06:43:29;;;;;;;114.00;8.50;;;;;;;9.24;100.00;99774.06;1691616;83;21072;-65
2022/11/02 06:45:57;;;;;;;58.48;8.40;;;;;;;9.29;100.00;99779.94;1669657;84;21155;-65
2022/11/02 06:48:26;;;;;;;66.85;8.38;;;;;;;9.36;100.00;99778.79;1678750;84;22859;-65
2022/11/02 06:50:53;;;;;;;52.85;8.08;;;;;;;9.36;100.00;99774.42;1708181;82;21031;-66
2022/11/02 06:53:20;;;;;;;47.05;7.92;;;;;;;9.41;100.00;99776.84;1712656;83;21060;-65
2022/11/02 06:55:53;;;;;;;19.00;7.72;;;;;;;9.53;100.00;99771.11;1675072;84;28016;-65
2022/11/02 06:58:22;;;;;;;79.82;8.48;;;;;;;9.56;100.00;99773.58;1704183;82;21079;-65
2022/11/02 07:00:48;;;;;;;22.37;6.97;;;;;;;9.56;100.00;99763.16;1697128;82;21054;-65
2022/11/02 07:03:15;;;;;;;14.45;6.58;;;;;;;9.60;100.00;99771.69;1700360;82;20964;-65
2022/11/02 07:05:46;;;;;;;34.10;7.80;;;;;;;9.63;100.00;99776.33;1706289;83;21177;-65
2022/11/02 07:08:12;;;;;;;35.75;7.87;;;;;;;9.65;100.00;99772.34;1701541;82;21054;-65
2022/11/02 07:10:40;;;;;;;44.00;7.03;;;;;;;9.68;100.00;99776.58;1696682;83;20932;-65
2022/11/02 07:13:06;;;;;;;26.80;7.20;;;;;;;9.70;100.00;99773.45;1699263;82;21438;-65
2022/11/02 07:15:33;;;;;;;21.83;7.33;;;;;;;9.81;100.00;99778.59;1701642;83;20964;-65
2022/11/02 07:18:00;;;;;;;26.60;7.15;;;;;;;9.92;100.00;99783.35;1696858;82;20995;-65
2022/11/02 07:20:29;;;;;;;;;;;;;;;10.07;100.00;99787.88;1703610;83;21646;-65
2022/11/02 07:22:58;;;;;;;26.30;6.90;;;;;;;10.14;100.00;99782.39;1704917;83;20223;-65
2022/11/02 07:25:29;;;;;;;15.20;6.97;;;;;;;10.20;100.00;99782.14;1706472;83;21058;-65
2022/11/02 07:27:58;;;;;;;12.80;6.92;;;;;;;10.27;100.00;99777.05;1681221;84;21066;-65
2022/11/02 07:30:31;;;;;;;11.95;7.30;;;;;;;10.37;100.00;99779.64;1676819;84;21960;-65
2022/11/02 07:32:58;;;;;;;15.58;7.10;;;;;;;10.26;100.00;99777.95;1680053;84;21040;-65
2022/11/02 07:35:25;;;;;;;13.55;7.45;;;;;;;10.20;100.00;99779.53;1693943;84;21069;-65
2022/11/02 07:37:58;;;;;;;12.82;7.35;;;;;;;10.22;100.00;99777.67;1665300;84;21147;-65
2022/11/02 07:40:26;;;;;;;32.40;8.50;;;;;;;10.28;100.00;99772.24;1672800;85;21042;-65
2022/11/02 07:42:53;;;;;;;25.75;6.85;;;;;;;10.34;100.00;99773.27;1668991;84;21087;-65
2022/11/02 07:45:21;;;;;;;34.38;7.72;;;;;;;10.40;100.00;99767.75;1669841;84;21136;-64
2022/11/02 07:47:49;;;;;;;20.80;7.40;;;;;;;10.41;100.00;99768.13;1660374;84;21052;-64
2022/11/02 07:50:22;;;;;;;19.60;7.35;;;;;;;10.52;100.00;99771.09;1720892;83;20985;-64
2022/11/02 07:52:52;;;;;;;20.92;7.30;;;;;;;10.66;100.00;99774.84;1699240;83;21434;-64
2022/11/02 07:55:22;;;;;;;15.43;7.35;;;;;;;10.63;100.00;99776.29;1696142;83;20982;-64
2022/11/02 07:57:54;;;;;;;12.75;7.92;;;;;;;10.75;100.00;99782.23;1696886;83;21965;-64
2022/11/02 08:00:21;;;;;;;18.05;7.72;;;;;;;10.86;100.00;99782.57;1680426;83;22329;-65
2022/11/02 08:02:48;;;;;;;9.38;8.45;;;;;;;10.95;100.00;99783.89;1684423;83;21697;-64
2022/11/02 08:05:15;;;;;;;10.47;9.20;;;;;;;11.07;100.00;99782.48;1673948;83;21119;-64
2022/11/02 08:07:42;;;;;;;13.83;8.80;;;;;;;11.11;100.00;99778.79;1685147;83;21800;-65
2022/11/02 08:10:09;;;;;;;11.30;8.70;;;;;;;11.28;100.00;99784.03;1678876;83;20969;-64
2022/11/02 08:12:35;;;;;;;9.18;8.08;;;;;;;11.42;100.00;99781.58;1674033;84;21604;-64
2022/11/02 08:15:03;;;;;;;9.33;8.00;;;;;;;11.59;100.00;99778.59;1679375;85;22284;-64
2022/11/02 08:17:30;;;;;;;10.70;8.00;;;;;;;11.85;100.00;99779.45;1695081;83;21306;-64
2022/11/02 08:19:57;;;;;;;12.40;9.00;;;;;;;11.98;100.00;99776.19;1682587;83;20973;-64
2022/11/02 08:22:24;;;;;;;9.23;8.28;;;;;;;12.03;100.00;99774.19;1684060;83;21103;-64
2022/11/02 08:24:50;;;;;;;10.38;8.05;;;;;;;12.13;100.00;99772.79;1682690;83;21541;-66
2022/11/02 08:27:17;;;;;;;8.40;7.13;;;;;;;12.21;100.00;99778.47;1686557;83;21054;-65
2022/11/02 08:29:44;;;;;;;11.80;7.57;;;;;;;12.26;100.00;99780.34;1682189;83;21340;-65
2022/11/02 08:32:12;;;;;;;7.50;6.80;;;;;;;12.29;100.00;99780.65;1677919;83;21064;-65
2022/11/02 08:34:39;;;;;;;6.83;6.03;;;;;;;12.38;100.00;99787.16;1681876;82;20922;-64
2022/11/02 08:37:07;;;;;;;7.10;5.10;;;;;;;12.43;100.00;99778.60;1680482;84;21072;-65
2022/11/02 08:39:34;;;;;;;8.03;5.60;;;;;;;12.51;100.00;99771.18;1699641;83;21130;-65
2022/11/02 08:42:01;;;;;;;7.47;5.63;;;;;;;12.47;100.00;99765.74;1692690;83;21020;-65
2022/11/02 08:44:28;;;;;;;10.60;5.78;;;;;;;12.47;100.00;99768.36;1691538;83;21352;-65
2022/11/02 08:46:55;;;;;;;7.42;5.65;;;;;;;12.43;100.00;99766.82;1701291;83;20921;-65
2022/11/02 08:49:21;;;;;;;8.18;5.50;;;;;;;12.45;100.00;99764.97;1699303;81;20934;-65
2022/11/02 08:51:50;;;;;;;6.23;5.60;;;;;;;12.45;100.00;99762.36;1698320;84;21049;-65
2022/11/02 08:54:16;;;;;;;5.97;4.95;;;;;;;12.41;100.00;99763.47;1692777;83;20935;-64
2022/11/02 08:56:43;;;;;;;6.25;5.00;;;;;;;12.43;100.00;99763.73;1694141;83;20978;-64
2022/11/02 08:59:10;;;;;;;6.20;4.87;;;;;;;12.47;100.00;99764.44;1714365;82;21906;-65
2022/11/02 09:01:37;;;;;;;7.05;5.50;;;;;;;12.47;100.00;99764.44;1706200;83;20914;-64
2022/11/02 09:04:04;;;;;;;8.53;5.40;;;;;;;12.44;100.00;99755.44;1704747;83;21463;-64
2022/11/02 09:06:31;;;;;;;7.87;5.60;;;;;;;12.48;100.00;99754.33;1704247;81;20954;-64
2022/11/02 09:08:59;;;;;;;6.30;5.03;;;;;;;12.47;100.00;99756.58;1698235;83;20970;-64
2022/11/02 09:11:26;;;;;;;10.40;5.83;;;;;;;12.54;100.00;99756.61;1707109;81;20946;-64
2022/11/02 09:13:53;;;;;;;8.15;5.60;;;;;;;12.60;100.00;99751.49;1703848;82;20937;-65
2022/11/02 09:16:19;;;;;;;6.35;5.15;;;;;;;12.62;100.00;99760.96;1700176;83;21973;-63
2022/11/02 09:18:46;;;;;;;7.08;5.85;;;;;;;12.65;100.00;99759.48;1699372;81;20957;-64
2022/11/02 09:21:13;;;;;;;7.93;5.47;;;;;;;12.75;100.00;99751.50;1713512;83;20932;-64
2022/11/02 09:23:39;;;;;;;12.43;5.47;;;;;;;12.84;100.00;99742.75;1707195;83;20985;-64
2022/11/02 09:26:06;;;;;;;10.30;5.70;;;;;;;12.85;100.00;99747.05;1706795;81;21171;-65
2022/11/02 09:28:34;;;;;;;7.97;6.10;;;;;;;12.89;100.00;99744.17;1713565;83;20923;-66
2022/11/02 09:31:03;;;;;;;12.33;7.13;;;;;;;12.90;100.00;99750.26;1706272;83;21476;-66
2022/11/02 09:33:31;;;;;;;11.03;7.17;;;;;;;12.88;100.00;99750.36;1700480;83;20934;-65
2022/11/02 09:36:04;;;;;;;10.45;7.20;;;;;;;12.92;100.00;99739.23;1700910;81;20926;-65
2022/11/02 09:38:31;;;;;;;10.58;7.47;;;;;;;12.96;100.00;99744.66;1709795;83;20973;-64
2022/11/02 09:41:07;;;;;;;;;;;;;;;13.00;100.00;99746.20;1693405;83;21060;-64
2022/11/02 09:43:54;;;;;;;12.53;6.70;;;;;;;12.97;100.00;99746.38;1685075;83;20087;-65
2022/11/02 09:46:40;;;;;;;8.58;6.47;;;;;;;12.91;100.00;99734.91;1702600;83;21451;-65
2022/11/02 09:49:20;;;;;;;9.03;6.42;;;;;;;12.89;100.00;99738.09;1673439;84;21538;-65
2022/11/02 09:51:56;;;;;;;12.15;7.50;;;;;;;12.84;100.00;99734.89;1645393;85;21023;-64
2022/11/02 09:54:28;;;;;;;12.63;7.55;;;;;;;12.81;100.00;99735.91;1672382;83;21865;-65
2022/11/02 09:57:05;;;;;;;12.70;6.55;;;;;;;12.91;100.00;99736.21;1657252;85;21505;-66
2022/11/02 09:59:32;;;;;;;10.70;6.42;;;;;;;12.88;100.00;99729.40;1649483;85;21126;-65
2022/11/02 10:02:22;;;;;;;11.25;5.67;;;;;;;12.82;100.00;99728.88;1660595;85;20966;-65
2022/11/02 10:05:28;;;;;;;9.30;5.55;;;;;;;12.72;100.00;99729.41;1654538;85;21612;-65
2022/11/02 10:08:25;;;;;;;9.25;5.92;;;;;;;12.65;100.00;99718.87;1657959;85;21131;-65
2022/11/02 10:11:22;;;;;;;9.88;5.67;;;;;;;12.69;100.00;99721.72;1645086;85;20928;-65
2022/11/02 10:13:57;;;;;;;8.25;5.53;;;;;;;12.70;100.00;99720.78;1651121;85;20985;-65
2022/11/02 10:16:48;;;;;;;12.47;5.42;;;;;;;12.71;100.00;99722.45;1626497;85;20955;-64
2022/11/02 10:19:18;;;;;;;9.55;6.00;;;;;;;12.74;100.00;99722.31;1619941;86;21506;-65
2022/11/02 10:21:49;;;;;;;7.75;5.53;;;;;;;12.84;100.00;99720.48;1610073;87;21404;-66
2022/11/02 10:28:06;;;;;;;10.98;5.53;;;;;;;12.89;100.00;99719.75;1646881;84;21523;-66
2022/11/02 10:30:33;;;;;;;9.63;6.20;;;;;;;13.03;100.00;99715.88;1644306;85;20906;-66
2022/11/02 10:33:00;;;;;;;9.30;6.42;;;;;;;13.00;100.00;99717.37;1655407;85;20958;-66
2022/11/02 10:35:50;;;;;;;10.48;6.28;;;;;;;12.98;100.00;99716.60;1659447;86;20962;-64
2022/11/02 10:38:54;;;;;;;11.88;6.67;;;;;;;12.95;100.00;99716.30;1651741;85;21025;-65
2022/11/02 10:41:34;;;;;;;11.03;7.10;;;;;;;12.82;100.00;99710.54;1656461;85;21001;-65
2022/11/02 10:44:21;;;;;;;15.72;7.53;;;;;;;12.66;100.00;99708.80;1664160;84;20945;-64
2022/11/02 10:47:15;;;;;;;14.75;7.22;;;;;;;12.67;100.00;99705.23;1660897;84;21519;-64
2022/11/02 10:50:20;;;;;;;14.63;7.85;;;;;;;12.73;100.00;99698.33;1630225;86;21979;-63
2022/11/02 10:52:46;;;;;;;21.12;9.33;;;;;;;12.78;100.00;99703.80;1659903;84;21451;-65
2022/11/02 10:55:27;;;;;;;12.50;7.30;;;;;;;12.80;100.00;99704.53;1686015;84;21443;-63
2022/11/02 10:57:58;;;;;;;12.82;8.60;;;;;;;12.83;100.00;99707.01;1694931;84;20988;-65
2022/11/02 11:00:36;;;;;;;13.22;8.65;;;;;;;12.83;100.00;99704.39;1690366;84;21716;-64
2022/11/02 11:03:08;;;;;;;13.50;8.48;;;;;;;12.88;100.00;99711.49;1676088;84;21068;-64
2022/11/02 11:05:56;;;;;;;13.25;8.73;;;;;;;12.83;100.00;99707.84;1703958;82;21669;-64
2022/11/02 11:08:42;;;;;;;13.43;9.08;;;;;;;12.92;100.00;99715.64;1691238;84;21471;-65
2022/11/02 11:11:28;;;;;;;15.98;8.60;;;;;;;12.94;100.00;99712.48;1668885;84;20943;-64
2022/11/02 11:14:05;;;;;;;18.65;9.33;;;;;;;13.07;100.00;99709.98;1694011;84;21015;-63
2022/11/02 11:16:42;;;;;;;11.78;8.90;;;;;;;13.08;100.00;99715.15;1699965;83;20987;-64
2022/11/02 11:19:40;;;;;;;12.73;8.80;;;;;;;13.07;99.73;99714.75;1699022;84;20983;-63
2022/11/02 11:22:35;;;;;;;16.90;9.20;;;;;;;12.88;99.62;99718.91;1681640;84;20938;-64
2022/11/02 11:25:13;;;;;;;21.50;9.20;;;;;;;12.99;100.00;99716.97;1696343;83;20981;-65
2022/11/02 11:28:06;;;;;;;18.05;9.13;;;;;;;13.07;100.00;99718.69;1694416;83;20925;-65
2022/11/02 11:30:36;;;;;;;17.65;10.25;;;;;;;12.98;99.22;99716.60;1681794;83;21004;-65
2022/11/02 11:33:06;;;;;;;16.65;9.35;;;;;;;12.90;99.01;99713.57;1700569;83;20981;-65
2022/11/02 11:35:39;;;;;;;15.10;9.30;;;;;;;12.89;99.12;99714.52;1694272;83;20933;-65
2022/11/02 11:38:26;;;;;;;13.43;8.33;;;;;;;12.98;99.53;99709.58;1684845;84;21590;-65
2022/11/02 11:40:56;;;;;;;15.28;8.08;;;;;;;13.13;99.47;99703.91;1668846;84;20918;-65
2022/11/02 11:43:28;;;;;;;11.20;6.80;;;;;;;13.32;99.62;99701.56;1675119;83;21048;-65
2022/11/02 11:46:01;;;;;;;13.00;6.15;;;;;;;13.35;99.07;99693.52;1697745;83;20970;-65
2022/11/02 11:48:42;;;;;;;10.95;6.83;;;;;;;13.39;98.67;99685.86;1684747;84;20989;-64
2022/11/02 11:51:37;;;;;;;9.58;6.47;;;;;;;13.33;97.95;99682.27;1691511;84;21439;-64
2022/11/02 11:54:26;;;;;;;9.38;6.22;;;;;;;13.23;97.66;99683.73;1696845;83;20955;-66
2022/11/02 11:56:56;;;;;;;13.65;7.22;;;;;;;13.26;98.06;99682.27;1717537;83;21123;-65
2022/11/02 11:59:32;;;;;;;10.10;6.65;;;;;;;13.33;98.07;99674.40;1719573;83;20914;-64
2022/11/02 12:02:00;;;;;;;9.55;7.08;;;;;;;13.37;98.05;99681.16;1714401;83;20942;-65
2022/11/02 12:04:32;;;;;;;12.25;7.80;;;;;;;13.42;97.76;99674.70;1708877;82;21396;-64